ARA44 DNAI-DGAA
Flight info
| Callsign | ARA44 |
|---|---|
| Flight time | 1h 24m |
| Altitude | 38000 |
| Route | AI DCT ULKAG UA601 TYE UL433 EREKA EREKA1B |
| Aircraft | B737/M-SDE2E3FGHIRWXY/LB1 |
Departure
| Time | 2026-04-29 17:40 |
|---|---|
| Airport | Akwa Ibom International Airport (DNAI) |
Arrival
| Time | 2026-04-29 19:05 |
|---|---|
| Airport | Kotoka International Airport (DGAA) |
| Time | Latitude | Longitude | Altitude | Speed | Heading |
|---|---|---|---|---|---|
| 2026-04-29 17:15 | 4.87073 | 8.08980 | 152 ft | 0 kts | 25° |
| 2026-04-29 17:32 | 4.87074 | 8.08980 | 147 ft | 1 kts | 25° |
| 2026-04-29 17:33 | 4.87088 | 8.08987 | 148 ft | 5 kts | 29° |
| 2026-04-29 17:33 | 4.87094 | 8.09017 | 152 ft | 6 kts | 105° |
| 2026-04-29 17:33 | 4.87080 | 8.09058 | 154 ft | 6 kts | 108° |
| 2026-04-29 17:33 | 4.87085 | 8.09105 | 155 ft | 8 kts | 52° |
| 2026-04-29 17:34 | 4.87133 | 8.09132 | 157 ft | 8 kts | 23° |
| 2026-04-29 17:34 | 4.87166 | 8.09185 | 160 ft | 8 kts | 105° |
| 2026-04-29 17:34 | 4.87151 | 8.09217 | 160 ft | 7 kts | 115° |
| 2026-04-29 17:34 | 4.87130 | 8.09263 | 161 ft | 7 kts | 115° |
| 2026-04-29 17:35 | 4.87158 | 8.09331 | 162 ft | 7 kts | 37° |
| 2026-04-29 17:35 | 4.87220 | 8.09363 | 162 ft | 9 kts | 26° |
| 2026-04-29 17:35 | 4.87286 | 8.09396 | 162 ft | 13 kts | 26° |
| 2026-04-29 17:36 | 4.87379 | 8.09442 | 163 ft | 16 kts | 27° |
| 2026-04-29 17:36 | 4.87486 | 8.09498 | 164 ft | 18 kts | 27° |
| 2026-04-29 17:36 | 4.87609 | 8.09557 | 162 ft | 21 kts | 27° |
| 2026-04-29 17:36 | 4.87740 | 8.09621 | 164 ft | 21 kts | 25° |
| 2026-04-29 17:37 | 4.87867 | 8.09683 | 167 ft | 20 kts | 25° |
| 2026-04-29 17:37 | 4.87990 | 8.09742 | 169 ft | 19 kts | 27° |
| 2026-04-29 17:37 | 4.88108 | 8.09803 | 176 ft | 19 kts | 24° |
| 2026-04-29 17:37 | 4.88224 | 8.09858 | 184 ft | 18 kts | 27° |
| 2026-04-29 17:38 | 4.88335 | 8.09913 | 189 ft | 17 kts | 26° |
| 2026-04-29 17:38 | 4.88442 | 8.09967 | 193 ft | 17 kts | 26° |
| 2026-04-29 17:38 | 4.88545 | 8.10017 | 195 ft | 16 kts | 26° |
| 2026-04-29 17:38 | 4.88631 | 8.10037 | 183 ft | 5 kts | 31° |
| 2026-04-29 17:39 | 4.88635 | 8.10049 | 188 ft | 1 kts | 101° |
| 2026-04-29 17:39 | 4.88633 | 8.10050 | 188 ft | 1 kts | 133° |
| 2026-04-29 17:39 | 4.88622 | 8.10051 | 195 ft | 3 kts | 175° |
| 2026-04-29 17:39 | 4.88571 | 8.10029 | 198 ft | 23 kts | 206° |
| 2026-04-29 17:40 | 4.88430 | 8.09961 | 190 ft | 62 kts | 206° |
| 2026-04-29 17:40 | 4.87828 | 8.09664 | 166 ft | 128 kts | 206° |
| 2026-04-29 17:40 | 4.86914 | 8.09209 | 411 ft | 155 kts | 206° |
| 2026-04-29 17:40 | 4.85968 | 8.08728 | 1149 ft | 149 kts | 206° |
| 2026-04-29 17:41 | 4.85035 | 8.08256 | 1741 ft | 154 kts | 206° |
| 2026-04-29 17:41 | 4.84099 | 8.07648 | 2108 ft | 177 kts | 232° |
| 2026-04-29 17:41 | 4.83686 | 8.06393 | 2400 ft | 206 kts | 257° |
| 2026-04-29 17:41 | 4.83408 | 8.04890 | 2583 ft | 232 kts | 257° |
| 2026-04-29 17:42 | 4.83075 | 8.03262 | 2843 ft | 253 kts | 256° |
| 2026-04-29 17:42 | 4.82678 | 8.01485 | 3364 ft | 267 kts | 255° |
| 2026-04-29 17:42 | 4.82242 | 7.99652 | 4107 ft | 274 kts | 254° |
| 2026-04-29 17:42 | 4.81773 | 7.97781 | 4887 ft | 279 kts | 254° |
| 2026-04-29 17:43 | 4.81281 | 7.95888 | 5688 ft | 285 kts | 253° |
| 2026-04-29 17:43 | 4.80760 | 7.93942 | 6431 ft | 292 kts | 253° |
| 2026-04-29 17:43 | 4.80220 | 7.91964 | 7188 ft | 297 kts | 253° |
| 2026-04-29 17:43 | 4.79663 | 7.89953 | 8005 ft | 302 kts | 253° |
| 2026-04-29 17:44 | 4.79090 | 7.87906 | 8816 ft | 309 kts | 253° |
| 2026-04-29 17:44 | 4.78503 | 7.85821 | 9691 ft | 314 kts | 253° |
| 2026-04-29 17:44 | 4.78011 | 7.84080 | 10306 ft | 321 kts | 253° |
| 2026-04-29 17:44 | 4.77410 | 7.81966 | 10580 ft | 346 kts | 253° |
| 2026-04-29 17:45 | 4.76733 | 7.79590 | 11114 ft | 359 kts | 253° |
| 2026-04-29 17:45 | 4.76043 | 7.77166 | 11879 ft | 364 kts | 253° |
| 2026-04-29 17:45 | 4.75345 | 7.74714 | 12709 ft | 368 kts | 253° |
| 2026-04-29 17:45 | 4.74637 | 7.72231 | 13515 ft | 372 kts | 253° |
| 2026-04-29 17:46 | 4.73920 | 7.69718 | 14239 ft | 377 kts | 253° |
| 2026-04-29 17:46 | 4.73196 | 7.67180 | 14973 ft | 381 kts | 253° |
| 2026-04-29 17:46 | 4.72463 | 7.64610 | 15718 ft | 385 kts | 253° |
| 2026-04-29 17:46 | 4.71721 | 7.62014 | 16480 ft | 388 kts | 253° |
| 2026-04-29 17:47 | 4.70976 | 7.59402 | 17210 ft | 392 kts | 254° |
| 2026-04-29 17:47 | 4.70220 | 7.56757 | 17928 ft | 396 kts | 254° |
| 2026-04-29 17:47 | 4.69458 | 7.54088 | 18566 ft | 400 kts | 254° |
| 2026-04-29 17:47 | 4.68687 | 7.51392 | 19168 ft | 404 kts | 254° |
| 2026-04-29 17:48 | 4.67909 | 7.48669 | 19760 ft | 408 kts | 254° |
| 2026-04-29 17:48 | 4.67123 | 7.45918 | 20346 ft | 413 kts | 253° |
| 2026-04-29 17:48 | 4.66328 | 7.43137 | 20919 ft | 417 kts | 253° |
| 2026-04-29 17:48 | 4.65525 | 7.40330 | 21484 ft | 421 kts | 253° |
| 2026-04-29 17:49 | 4.64716 | 7.37501 | 22045 ft | 424 kts | 253° |
| 2026-04-29 17:49 | 4.63898 | 7.34642 | 22580 ft | 428 kts | 253° |
| 2026-04-29 17:49 | 4.63083 | 7.31796 | 23091 ft | 433 kts | 253° |
| 2026-04-29 17:49 | 4.62251 | 7.28887 | 23573 ft | 437 kts | 253° |
| 2026-04-29 17:50 | 4.61411 | 7.25950 | 24024 ft | 439 kts | 253° |
| 2026-04-29 17:50 | 4.60570 | 7.23013 | 24523 ft | 440 kts | 253° |
| 2026-04-29 17:50 | 4.59725 | 7.20060 | 25024 ft | 440 kts | 253° |
| 2026-04-29 17:50 | 4.58880 | 7.17108 | 25486 ft | 442 kts | 253° |
| 2026-04-29 17:51 | 4.58027 | 7.14132 | 25934 ft | 444 kts | 253° |
| 2026-04-29 17:51 | 4.57174 | 7.11152 | 26388 ft | 446 kts | 253° |
| 2026-04-29 17:51 | 4.56316 | 7.08158 | 26821 ft | 448 kts | 253° |
| 2026-04-29 17:51 | 4.55456 | 7.05154 | 27269 ft | 449 kts | 253° |
| 2026-04-29 17:52 | 4.54590 | 7.02130 | 27694 ft | 451 kts | 253° |
| 2026-04-29 17:52 | 4.54016 | 7.00129 | 27987 ft | 452 kts | 253° |
| 2026-04-29 17:52 | 4.52851 | 6.96064 | 28526 ft | 455 kts | 254° |
| 2026-04-29 17:52 | 4.52261 | 6.92988 | 28896 ft | 457 kts | 266° |
| 2026-04-29 17:53 | 4.52329 | 6.89797 | 29293 ft | 458 kts | 277° |
| 2026-04-29 17:53 | 4.53018 | 6.86682 | 29682 ft | 459 kts | 290° |
| 2026-04-29 17:53 | 4.54198 | 6.83710 | 30041 ft | 460 kts | 294° |
| 2026-04-29 17:53 | 4.55466 | 6.80756 | 30326 ft | 463 kts | 294° |
| 2026-04-29 17:54 | 4.56744 | 6.77785 | 30618 ft | 465 kts | 294° |
| 2026-04-29 17:54 | 4.58001 | 6.74796 | 30919 ft | 467 kts | 294° |
| 2026-04-29 17:54 | 4.58823 | 6.72802 | 31143 ft | 467 kts | 293° |
| 2026-04-29 17:54 | 4.60066 | 6.69750 | 31569 ft | 465 kts | 293° |
| 2026-04-29 17:55 | 4.61257 | 6.66815 | 32047 ft | 463 kts | 293° |
| 2026-04-29 17:55 | 4.62472 | 6.63832 | 32523 ft | 461 kts | 294° |
| 2026-04-29 17:55 | 4.63689 | 6.60866 | 32958 ft | 460 kts | 294° |
| 2026-04-29 17:55 | 4.64907 | 6.57905 | 33407 ft | 459 kts | 294° |
| 2026-04-29 17:56 | 4.66122 | 6.54953 | 33891 ft | 457 kts | 294° |
| 2026-04-29 17:56 | 4.67328 | 6.52019 | 34312 ft | 455 kts | 294° |
| 2026-04-29 17:56 | 4.68531 | 6.49090 | 34693 ft | 454 kts | 294° |
| 2026-04-29 17:56 | 4.69732 | 6.46163 | 35059 ft | 452 kts | 294° |
| 2026-04-29 17:57 | 4.70910 | 6.43293 | 35411 ft | 451 kts | 294° |
| 2026-04-29 17:57 | 4.72101 | 6.40388 | 35786 ft | 450 kts | 294° |
| 2026-04-29 17:57 | 4.73290 | 6.37489 | 36144 ft | 448 kts | 295° |
| 2026-04-29 17:57 | 4.74075 | 6.35573 | 36384 ft | 447 kts | 295° |
| 2026-04-29 17:58 | 4.75653 | 6.31725 | 36832 ft | 446 kts | 295° |
| 2026-04-29 17:58 | 4.76831 | 6.28850 | 37152 ft | 445 kts | 295° |
| 2026-04-29 17:58 | 4.78005 | 6.25986 | 37464 ft | 444 kts | 295° |
| 2026-04-29 17:58 | 4.79176 | 6.23129 | 37778 ft | 443 kts | 295° |
| 2026-04-29 17:59 | 4.80348 | 6.20267 | 37909 ft | 446 kts | 295° |
| 2026-04-29 17:59 | 4.82722 | 6.14471 | 37900 ft | 449 kts | 294° |
| 2026-04-29 18:00 | 4.85045 | 6.08699 | 37886 ft | 443 kts | 294° |
| 2026-04-29 18:00 | 4.87335 | 6.02976 | 37907 ft | 442 kts | 294° |
| 2026-04-29 18:01 | 4.89627 | 5.97257 | 37909 ft | 442 kts | 294° |
| 2026-04-29 18:01 | 4.91906 | 5.91576 | 37910 ft | 442 kts | 294° |
| 2026-04-29 18:02 | 4.94203 | 5.85849 | 37903 ft | 443 kts | 294° |
| 2026-04-29 18:02 | 4.96267 | 5.80704 | 37905 ft | 443 kts | 294° |
| 2026-04-29 18:03 | 4.98441 | 5.75279 | 37903 ft | 444 kts | 294° |
| 2026-04-29 18:03 | 5.00583 | 5.69934 | 37909 ft | 444 kts | 294° |
| 2026-04-29 18:04 | 5.02886 | 5.64183 | 37910 ft | 445 kts | 294° |
| 2026-04-29 18:04 | 5.05200 | 5.58422 | 37903 ft | 445 kts | 294° |
| 2026-04-29 18:05 | 5.07530 | 5.52662 | 37904 ft | 446 kts | 294° |
| 2026-04-29 18:05 | 5.09864 | 5.46895 | 37905 ft | 446 kts | 294° |
| 2026-04-29 18:06 | 5.12197 | 5.41122 | 37901 ft | 446 kts | 294° |
| 2026-04-29 18:06 | 5.14431 | 5.35592 | 37905 ft | 447 kts | 294° |
| 2026-04-29 18:07 | 5.16762 | 5.29816 | 37908 ft | 447 kts | 294° |
| 2026-04-29 18:07 | 5.19094 | 5.24036 | 37906 ft | 447 kts | 294° |
| 2026-04-29 18:08 | 5.21411 | 5.18294 | 37906 ft | 447 kts | 294° |
| 2026-04-29 18:08 | 5.23743 | 5.12512 | 37902 ft | 447 kts | 294° |
| 2026-04-29 18:09 | 5.26074 | 5.06730 | 37903 ft | 446 kts | 294° |
| 2026-04-29 18:09 | 5.28383 | 5.01002 | 37904 ft | 446 kts | 294° |
| 2026-04-29 18:10 | 5.30707 | 4.95233 | 37904 ft | 445 kts | 293° |
| 2026-04-29 18:10 | 5.32911 | 4.89761 | 37900 ft | 445 kts | 293° |
| 2026-04-29 18:11 | 5.35226 | 4.84014 | 37901 ft | 444 kts | 293° |
| 2026-04-29 18:11 | 5.37356 | 4.78723 | 37900 ft | 444 kts | 293° |
| 2026-04-29 18:12 | 5.39652 | 4.73016 | 37901 ft | 443 kts | 293° |
| 2026-04-29 18:12 | 5.41959 | 4.67279 | 37901 ft | 443 kts | 293° |
| 2026-04-29 18:13 | 5.44256 | 4.61569 | 37898 ft | 443 kts | 293° |
| 2026-04-29 18:13 | 5.46556 | 4.55827 | 37901 ft | 444 kts | 293° |
| 2026-04-29 18:14 | 5.48852 | 4.50081 | 37903 ft | 444 kts | 292° |
| 2026-04-29 18:14 | 5.51155 | 4.44318 | 37898 ft | 445 kts | 292° |
| 2026-04-29 18:15 | 5.53461 | 4.38548 | 37900 ft | 445 kts | 292° |
| 2026-04-29 18:15 | 5.55766 | 4.32777 | 37903 ft | 446 kts | 292° |
| 2026-04-29 18:16 | 5.58077 | 4.26991 | 37902 ft | 446 kts | 292° |
| 2026-04-29 18:16 | 5.60389 | 4.21200 | 37900 ft | 447 kts | 292° |
| 2026-04-29 18:17 | 5.62545 | 4.15796 | 37906 ft | 447 kts | 292° |
| 2026-04-29 18:17 | 5.64855 | 4.10007 | 37900 ft | 447 kts | 292° |
| 2026-04-29 18:18 | 5.67154 | 4.04243 | 37901 ft | 447 kts | 292° |
| 2026-04-29 18:18 | 5.69332 | 3.98779 | 37896 ft | 447 kts | 292° |
| 2026-04-29 18:19 | 5.71637 | 3.92995 | 37897 ft | 446 kts | 292° |
| 2026-04-29 18:19 | 5.73940 | 3.87215 | 37903 ft | 445 kts | 292° |
| 2026-04-29 18:20 | 5.76274 | 3.81452 | 37900 ft | 445 kts | 294° |
| 2026-04-29 18:20 | 5.78686 | 3.75841 | 37899 ft | 444 kts | 295° |
| 2026-04-29 18:21 | 5.80732 | 3.71124 | 37899 ft | 443 kts | 294° |
| 2026-04-29 18:21 | 5.83179 | 3.65445 | 37896 ft | 442 kts | 294° |
| 2026-04-29 18:22 | 5.85611 | 3.59771 | 37900 ft | 442 kts | 294° |
| 2026-04-29 18:22 | 5.88037 | 3.54103 | 37899 ft | 442 kts | 294° |
| 2026-04-29 18:23 | 5.90459 | 3.48438 | 37897 ft | 441 kts | 294° |
| 2026-04-29 18:23 | 5.92885 | 3.42765 | 37904 ft | 441 kts | 294° |
| 2026-04-29 18:24 | 5.95308 | 3.37098 | 37898 ft | 442 kts | 294° |
| 2026-04-29 18:24 | 5.96843 | 3.33507 | 37900 ft | 442 kts | 294° |
| 2026-04-29 18:25 | 5.99265 | 3.27839 | 37900 ft | 442 kts | 294° |
| 2026-04-29 18:25 | 6.01693 | 3.22154 | 37904 ft | 442 kts | 294° |
| 2026-04-29 18:26 | 6.04017 | 3.16711 | 37902 ft | 442 kts | 294° |
| 2026-04-29 18:26 | 6.06442 | 3.11028 | 37898 ft | 442 kts | 294° |
| 2026-04-29 18:27 | 6.08698 | 3.05740 | 37899 ft | 442 kts | 294° |
| 2026-04-29 18:27 | 6.11103 | 3.00104 | 37898 ft | 442 kts | 294° |
| 2026-04-29 18:28 | 6.13524 | 2.94427 | 37897 ft | 442 kts | 294° |
| 2026-04-29 18:28 | 6.15943 | 2.88752 | 37901 ft | 441 kts | 294° |
| 2026-04-29 18:29 | 6.18360 | 2.83081 | 37899 ft | 441 kts | 294° |
| 2026-04-29 18:29 | 6.20576 | 2.77877 | 37898 ft | 441 kts | 294° |
| 2026-04-29 18:30 | 6.22963 | 2.72204 | 37899 ft | 440 kts | 293° |
| 2026-04-29 18:30 | 6.25258 | 2.66493 | 37896 ft | 440 kts | 292° |
| 2026-04-29 18:31 | 6.27527 | 2.60824 | 37893 ft | 439 kts | 292° |
| 2026-04-29 18:31 | 6.29819 | 2.55133 | 37887 ft | 439 kts | 293° |
| 2026-04-29 18:32 | 6.32112 | 2.49445 | 37886 ft | 438 kts | 293° |
| 2026-04-29 18:32 | 6.35295 | 2.40843 | 37873 ft | 439 kts | 282° |
| 2026-04-29 18:33 | 6.35595 | 2.34743 | 37872 ft | 440 kts | 263° |
| 2026-04-29 18:33 | 6.34636 | 2.28671 | 37887 ft | 439 kts | 261° |
| 2026-04-29 18:34 | 6.33780 | 2.23640 | 37888 ft | 440 kts | 261° |
| 2026-04-29 18:34 | 6.32626 | 2.16553 | 37890 ft | 439 kts | 262° |
| 2026-04-29 18:35 | 6.31669 | 2.10487 | 37891 ft | 439 kts | 262° |
| 2026-04-29 18:35 | 6.30723 | 2.04458 | 37897 ft | 439 kts | 262° |
| 2026-04-29 18:36 | 6.29773 | 1.98423 | 37899 ft | 439 kts | 262° |
| 2026-04-29 18:36 | 6.28818 | 1.92358 | 37900 ft | 439 kts | 262° |
| 2026-04-29 18:37 | 6.28337 | 1.89310 | 37448 ft | 444 kts | 262° |
| 2026-04-29 18:37 | 6.27854 | 1.86247 | 36932 ft | 442 kts | 262° |
| 2026-04-29 18:37 | 6.27372 | 1.83189 | 36329 ft | 442 kts | 262° |
| 2026-04-29 18:37 | 6.26890 | 1.80138 | 35799 ft | 441 kts | 262° |
| 2026-04-29 18:38 | 6.26411 | 1.77109 | 35373 ft | 437 kts | 261° |
| 2026-04-29 18:38 | 6.25933 | 1.74101 | 34905 ft | 434 kts | 261° |
| 2026-04-29 18:38 | 6.25456 | 1.71109 | 34441 ft | 433 kts | 261° |
| 2026-04-29 18:38 | 6.24980 | 1.68125 | 33987 ft | 431 kts | 261° |
| 2026-04-29 18:39 | 6.24507 | 1.65153 | 33480 ft | 430 kts | 261° |
| 2026-04-29 18:39 | 6.24036 | 1.62202 | 33024 ft | 427 kts | 261° |
| 2026-04-29 18:39 | 6.23573 | 1.59297 | 32579 ft | 424 kts | 261° |
| 2026-04-29 18:39 | 6.23107 | 1.56377 | 32142 ft | 421 kts | 261° |
| 2026-04-29 18:40 | 6.22644 | 1.53475 | 31717 ft | 419 kts | 261° |
| 2026-04-29 18:40 | 6.22186 | 1.50598 | 31290 ft | 416 kts | 261° |
| 2026-04-29 18:40 | 6.21728 | 1.47730 | 30874 ft | 414 kts | 261° |
| 2026-04-29 18:40 | 6.21273 | 1.44879 | 30463 ft | 412 kts | 261° |
| 2026-04-29 18:41 | 6.19919 | 1.36400 | 29092 ft | 405 kts | 261° |
| 2026-04-29 18:41 | 6.19473 | 1.33613 | 28631 ft | 402 kts | 261° |
| 2026-04-29 18:42 | 6.19031 | 1.30849 | 28183 ft | 399 kts | 261° |
| 2026-04-29 18:42 | 6.18581 | 1.28101 | 27741 ft | 396 kts | 258° |
| 2026-04-29 18:42 | 6.17848 | 1.25443 | 27298 ft | 393 kts | 248° |
| 2026-04-29 18:42 | 6.16793 | 1.22920 | 26887 ft | 390 kts | 245° |
| 2026-04-29 18:43 | 6.15691 | 1.20433 | 26455 ft | 388 kts | 245° |
| 2026-04-29 18:43 | 6.14589 | 1.17961 | 26028 ft | 387 kts | 245° |
| 2026-04-29 18:43 | 6.13501 | 1.15497 | 25601 ft | 385 kts | 245° |
| 2026-04-29 18:43 | 6.12425 | 1.13033 | 25153 ft | 385 kts | 245° |
| 2026-04-29 18:44 | 6.11373 | 1.10606 | 24726 ft | 384 kts | 245° |
| 2026-04-29 18:44 | 6.10312 | 1.08148 | 24282 ft | 383 kts | 245° |
| 2026-04-29 18:44 | 6.09255 | 1.05694 | 23851 ft | 383 kts | 245° |
| 2026-04-29 18:44 | 6.08375 | 1.03655 | 23477 ft | 383 kts | 245° |
| 2026-04-29 18:45 | 6.07318 | 1.01204 | 22959 ft | 382 kts | 245° |
| 2026-04-29 18:45 | 6.06281 | 0.98750 | 22509 ft | 380 kts | 246° |
| 2026-04-29 18:45 | 6.05337 | 0.96283 | 22066 ft | 378 kts | 248° |
| 2026-04-29 18:45 | 6.04432 | 0.93813 | 21630 ft | 375 kts | 248° |
| 2026-04-29 18:46 | 6.03535 | 0.91358 | 21195 ft | 373 kts | 248° |
| 2026-04-29 18:46 | 6.03121 | 0.90232 | 20997 ft | 372 kts | 248° |
| 2026-04-29 18:46 | 6.02297 | 0.88003 | 20606 ft | 370 kts | 248° |
| 2026-04-29 18:47 | 6.01397 | 0.85592 | 20182 ft | 368 kts | 248° |
| 2026-04-29 18:47 | 6.00498 | 0.83191 | 19754 ft | 366 kts | 248° |
| 2026-04-29 18:47 | 5.99600 | 0.80801 | 19316 ft | 365 kts | 248° |
| 2026-04-29 18:47 | 5.98719 | 0.78415 | 18888 ft | 364 kts | 250° |
| 2026-04-29 18:48 | 5.98129 | 0.75945 | 18470 ft | 364 kts | 258° |
| 2026-04-29 18:48 | 5.97721 | 0.73437 | 17999 ft | 363 kts | 261° |
| 2026-04-29 18:48 | 5.97359 | 0.70929 | 17536 ft | 361 kts | 261° |
| 2026-04-29 18:48 | 5.97000 | 0.68440 | 17095 ft | 359 kts | 261° |
| 2026-04-29 18:49 | 5.96637 | 0.66003 | 16672 ft | 356 kts | 260° |
| 2026-04-29 18:49 | 5.96258 | 0.63547 | 16243 ft | 354 kts | 260° |
| 2026-04-29 18:49 | 5.95873 | 0.61113 | 15830 ft | 352 kts | 260° |
| 2026-04-29 18:49 | 5.95485 | 0.58696 | 15412 ft | 349 kts | 260° |
| 2026-04-29 18:50 | 5.95096 | 0.56295 | 15002 ft | 348 kts | 260° |
| 2026-04-29 18:50 | 5.94707 | 0.53905 | 14575 ft | 346 kts | 260° |
| 2026-04-29 18:50 | 5.94317 | 0.51518 | 14160 ft | 345 kts | 260° |
| 2026-04-29 18:50 | 5.93928 | 0.49134 | 13721 ft | 345 kts | 260° |
| 2026-04-29 18:51 | 5.93541 | 0.46763 | 13255 ft | 344 kts | 260° |
| 2026-04-29 18:51 | 5.93156 | 0.44405 | 12819 ft | 342 kts | 260° |
| 2026-04-29 18:51 | 5.92772 | 0.42054 | 12388 ft | 339 kts | 260° |
| 2026-04-29 18:51 | 5.92391 | 0.39725 | 11970 ft | 337 kts | 260° |
| 2026-04-29 18:52 | 5.92012 | 0.37403 | 11542 ft | 335 kts | 260° |
| 2026-04-29 18:52 | 5.91635 | 0.35098 | 11124 ft | 334 kts | 260° |
| 2026-04-29 18:52 | 5.91259 | 0.32798 | 10687 ft | 333 kts | 260° |
| 2026-04-29 18:52 | 5.90884 | 0.30507 | 10249 ft | 332 kts | 260° |
| 2026-04-29 18:53 | 5.90512 | 0.28234 | 10005 ft | 325 kts | 259° |
| 2026-04-29 18:53 | 5.90148 | 0.26008 | 9745 ft | 318 kts | 259° |
| 2026-04-29 18:53 | 5.89793 | 0.23836 | 9254 ft | 319 kts | 259° |
| 2026-04-29 18:53 | 5.89433 | 0.21638 | 8782 ft | 318 kts | 259° |
| 2026-04-29 18:54 | 5.89081 | 0.19484 | 8386 ft | 307 kts | 259° |
| 2026-04-29 18:54 | 5.88811 | 0.17828 | 8089 ft | 299 kts | 259° |
| 2026-04-29 18:54 | 5.88468 | 0.15723 | 7716 ft | 289 kts | 259° |
| 2026-04-29 18:54 | 5.88148 | 0.13766 | 7416 ft | 278 kts | 259° |
| 2026-04-29 18:55 | 5.87849 | 0.11930 | 7315 ft | 255 kts | 259° |
| 2026-04-29 18:55 | 5.87572 | 0.10235 | 7171 ft | 236 kts | 259° |
| 2026-04-29 18:55 | 5.87316 | 0.08665 | 7043 ft | 220 kts | 258° |
| 2026-04-29 18:55 | 5.87073 | 0.07183 | 6760 ft | 212 kts | 258° |
| 2026-04-29 18:56 | 5.86835 | 0.05734 | 6427 ft | 209 kts | 258° |
| 2026-04-29 18:56 | 5.86603 | 0.04319 | 6075 ft | 206 kts | 258° |
| 2026-04-29 18:56 | 5.86370 | 0.02898 | 5662 ft | 206 kts | 258° |
| 2026-04-29 18:56 | 5.86141 | 0.01500 | 5364 ft | 199 kts | 259° |
| 2026-04-29 18:57 | 5.85922 | 0.00162 | 5079 ft | 191 kts | 259° |
| 2026-04-29 18:57 | 5.85705 | -0.01159 | 4752 ft | 188 kts | 259° |
| 2026-04-29 18:57 | 5.85496 | -0.02440 | 4486 ft | 184 kts | 259° |
| 2026-04-29 18:57 | 5.85290 | -0.03699 | 4246 ft | 179 kts | 259° |
| 2026-04-29 18:58 | 5.85089 | -0.04921 | 4175 ft | 177 kts | 259° |
| 2026-04-29 18:58 | 5.84733 | -0.06087 | 4039 ft | 174 kts | 229° |
| 2026-04-29 18:58 | 5.83775 | -0.06718 | 4013 ft | 163 kts | 204° |
| 2026-04-29 18:58 | 5.82786 | -0.07326 | 3933 ft | 167 kts | 209° |
| 2026-04-29 18:59 | 5.81747 | -0.07873 | 3863 ft | 170 kts | 204° |
| 2026-04-29 18:59 | 5.80683 | -0.08354 | 3785 ft | 169 kts | 202° |
| 2026-04-29 18:59 | 5.79613 | -0.08812 | 3752 ft | 163 kts | 201° |
| 2026-04-29 18:59 | 5.78557 | -0.09254 | 3610 ft | 168 kts | 201° |
| 2026-04-29 19:00 | 5.77476 | -0.09703 | 3420 ft | 168 kts | 201° |
| 2026-04-29 19:00 | 5.76405 | -0.10147 | 3201 ft | 164 kts | 201° |
| 2026-04-29 19:00 | 5.75364 | -0.10578 | 2990 ft | 160 kts | 201° |
| 2026-04-29 19:00 | 5.74343 | -0.11001 | 2794 ft | 158 kts | 201° |
| 2026-04-29 19:01 | 5.73324 | -0.11422 | 2595 ft | 158 kts | 202° |
| 2026-04-29 19:01 | 5.72328 | -0.11835 | 2398 ft | 150 kts | 202° |
| 2026-04-29 19:01 | 5.71390 | -0.12224 | 2203 ft | 143 kts | 201° |
| 2026-04-29 19:01 | 5.70475 | -0.12603 | 2041 ft | 146 kts | 202° |
| 2026-04-29 19:02 | 5.69566 | -0.12979 | 1843 ft | 136 kts | 201° |
| 2026-04-29 19:02 | 5.68999 | -0.13214 | 1729 ft | 131 kts | 201° |
| 2026-04-29 19:02 | 5.67855 | -0.13687 | 1508 ft | 135 kts | 202° |
| 2026-04-29 19:02 | 5.66990 | -0.14046 | 1333 ft | 134 kts | 202° |
| 2026-04-29 19:03 | 5.66132 | -0.14401 | 1163 ft | 134 kts | 202° |
| 2026-04-29 19:03 | 5.65264 | -0.14761 | 985 ft | 136 kts | 202° |
| 2026-04-29 19:03 | 5.64397 | -0.15121 | 810 ft | 135 kts | 204° |
| 2026-04-29 19:03 | 5.63546 | -0.15476 | 646 ft | 135 kts | 203° |
| 2026-04-29 19:04 | 5.62666 | -0.15835 | 463 ft | 136 kts | 205° |
| 2026-04-29 19:04 | 5.61773 | -0.16203 | 278 ft | 136 kts | 204° |
| 2026-04-29 19:04 | 5.60938 | -0.16551 | 223 ft | 122 kts | 204° |
| 2026-04-29 19:04 | 5.60313 | -0.16809 | 216 ft | 66 kts | 202° |
| 2026-04-29 19:05 | 5.60071 | -0.16910 | 209 ft | 20 kts | 204° |
| 2026-04-29 19:05 | 5.59954 | -0.16982 | 213 ft | 19 kts | 219° |
| 2026-04-29 19:05 | 5.59879 | -0.17063 | 210 ft | 14 kts | 234° |
| 2026-04-29 19:05 | 5.59825 | -0.17134 | 208 ft | 12 kts | 232° |
| 2026-04-29 19:06 | 5.59824 | -0.17190 | 205 ft | 8 kts | 304° |
| 2026-04-29 19:06 | 5.59854 | -0.17207 | 208 ft | 0 kts | 354° |
| 2026-04-29 19:06 | 5.59910 | -0.17184 | 207 ft | 7 kts | 21° |
| 2026-04-29 19:07 | 5.59955 | -0.17164 | 206 ft | 7 kts | 22° |
| 2026-04-29 19:07 | 5.59970 | -0.17158 | 214 ft | 7 kts | 21° |
| 2026-04-29 19:07 | 5.60044 | -0.17132 | 210 ft | 6 kts | 16° |
| 2026-04-29 19:07 | 5.60071 | -0.17136 | 212 ft | 3 kts | 305° |
| 2026-04-29 19:08 | 5.60078 | -0.17156 | 207 ft | 3 kts | 292° |
| 2026-04-29 19:08 | 5.60086 | -0.17175 | 216 ft | 3 kts | 292° |
| 2026-04-29 19:08 | 5.60091 | -0.17187 | 212 ft | 3 kts | 292° |
| 2026-04-29 19:08 | 5.60098 | -0.17203 | 211 ft | 2 kts | 292° |
| 2026-04-29 19:09 | 5.60102 | -0.17215 | 215 ft | 1 kts | 292° |
| 2026-04-29 19:09 | 5.60104 | -0.17219 | 214 ft | 1 kts | 292° |
| 2026-04-29 19:09 | 5.60104 | -0.17220 | 213 ft | 0 kts | 292° |